createdAt,value
2022-11-10T00:02:43.564Z,100.00
2022-11-10T00:05:30.086Z,100.00
2022-11-10T00:08:16.091Z,100.00
2022-11-10T00:11:06.699Z,100.00
2022-11-10T00:14:11.593Z,100.00
2022-11-10T00:17:04.464Z,100.00
2022-11-10T00:19:50.710Z,100.00
2022-11-10T00:22:37.951Z,100.00
2022-11-10T00:25:24.903Z,100.00
2022-11-10T00:28:11.141Z,100.00
2022-11-10T00:30:58.527Z,100.00
2022-11-10T00:33:45.843Z,100.00
2022-11-10T00:36:31.972Z,100.00
2022-11-10T00:39:18.006Z,100.00
2022-11-10T00:42:04.390Z,100.00
2022-11-10T00:44:50.594Z,100.00
2022-11-10T00:47:38.155Z,100.00
2022-11-10T00:50:24.623Z,100.00
2022-11-10T00:53:10.995Z,100.00
2022-11-10T00:55:57.052Z,100.00
2022-11-10T00:58:43.033Z,100.00
2022-11-10T01:01:29.261Z,100.00
2022-11-10T01:04:16.867Z,100.00
2022-11-10T01:07:02.892Z,100.00
2022-11-10T01:09:48.951Z,100.00
2022-11-10T01:12:35.196Z,100.00
2022-11-10T01:15:26.174Z,100.00
2022-11-10T01:18:13.986Z,100.00
2022-11-10T01:21:01.725Z,100.00
2022-11-10T01:23:48.182Z,100.00
2022-11-10T01:26:34.669Z,100.00
2022-11-10T01:29:21.044Z,100.00
2022-11-10T01:32:07.022Z,100.00
2022-11-10T01:34:53.039Z,100.00
2022-11-10T01:37:40.934Z,100.00
2022-11-10T01:40:27.803Z,100.00
2022-11-10T01:43:14.051Z,100.00
2022-11-10T01:46:01.537Z,100.00
2022-11-10T01:48:50.595Z,100.00
2022-11-10T01:51:42.432Z,100.00
2022-11-10T01:54:33.268Z,100.00
2022-11-10T01:57:19.492Z,100.00
2022-11-10T02:00:08.122Z,100.00
2022-11-10T02:02:58.792Z,100.00
2022-11-10T02:05:44.895Z,100.00
2022-11-10T02:08:31.618Z,100.00
2022-11-10T02:11:19.527Z,100.00
2022-11-10T02:14:06.068Z,100.00
2022-11-10T02:16:52.478Z,100.00
2022-11-10T02:19:42.366Z,100.00
2022-11-10T02:22:29.728Z,100.00
2022-11-10T02:25:20.407Z,100.00
2022-11-10T02:28:06.806Z,100.00
2022-11-10T02:30:53.192Z,100.00
2022-11-10T02:33:39.808Z,100.00
2022-11-10T02:36:26.239Z,100.00
2022-11-10T02:39:13.667Z,100.00
2022-11-10T02:41:59.775Z,100.00
2022-11-10T02:44:45.964Z,100.00
2022-11-10T02:47:31.994Z,100.00
2022-11-10T02:50:18.083Z,100.00
2022-11-10T02:53:04.407Z,100.00
2022-11-10T02:55:51.942Z,100.00
2022-11-10T02:58:38.191Z,100.00
2022-11-10T03:01:24.636Z,100.00
2022-11-10T03:04:10.736Z,100.00
2022-11-10T03:06:56.634Z,100.00
2022-11-10T03:09:42.976Z,100.00
2022-11-10T03:12:30.402Z,100.00
2022-11-10T03:15:16.288Z,100.00
2022-11-10T03:18:04.651Z,100.00
2022-11-10T03:20:51.034Z,100.00
2022-11-10T03:23:37.672Z,100.00
2022-11-10T03:26:23.867Z,100.00
2022-11-10T03:29:11.228Z,100.00
2022-11-10T03:31:57.254Z,100.00
2022-11-10T03:34:43.427Z,100.00
2022-11-10T03:37:29.673Z,100.00
2022-11-10T03:40:16.137Z,100.00
2022-11-10T03:43:02.491Z,100.00
2022-11-10T03:45:50.172Z,100.00
2022-11-10T03:48:36.393Z,100.00
2022-11-10T03:51:22.838Z,100.00
2022-11-10T03:54:08.859Z,100.00
2022-11-10T03:56:55.682Z,100.00
2022-11-10T03:59:42.010Z,100.00
2022-11-10T04:02:29.289Z,100.00
2022-11-10T04:05:32.855Z,100.00
2022-11-10T04:08:36.575Z,100.00
2022-11-10T04:11:37.235Z,100.00
2022-11-10T04:14:40.722Z,100.00
2022-11-10T04:17:26.854Z,100.00
2022-11-10T04:20:14.744Z,100.00
2022-11-10T04:23:18.686Z,100.00
2022-11-10T04:26:24.814Z,100.00
2022-11-10T04:29:12.665Z,100.00
2022-11-10T04:31:58.665Z,100.00
2022-11-10T04:34:44.706Z,100.00
2022-11-10T04:37:32.556Z,100.00
2022-11-10T04:40:18.838Z,100.00
2022-11-10T04:43:04.891Z,100.00
2022-11-10T04:45:51.448Z,100.00
2022-11-10T04:48:37.764Z,100.00
2022-11-10T04:51:26.073Z,100.00
2022-11-10T04:54:13.377Z,100.00
2022-11-10T04:56:59.378Z,100.00
2022-11-10T04:59:45.681Z,100.00
2022-11-10T05:02:35.547Z,100.00
2022-11-10T05:05:24.366Z,100.00
2022-11-10T05:08:11.182Z,100.00
2022-11-10T05:10:59.275Z,100.00
2022-11-10T05:13:46.254Z,100.00
2022-11-10T05:16:32.379Z,100.00
2022-11-10T05:19:18.374Z,100.00
2022-11-10T05:22:05.839Z,100.00
2022-11-10T05:24:51.819Z,100.00
2022-11-10T05:27:39.421Z,100.00
2022-11-10T05:30:25.387Z,100.00
2022-11-10T05:33:11.842Z,100.00
2022-11-10T05:35:58.267Z,100.00
2022-11-10T05:38:44.131Z,100.00
2022-11-10T05:41:30.129Z,100.00
2022-11-10T05:44:17.464Z,100.00
2022-11-10T05:47:03.659Z,100.00
2022-11-10T05:49:50.010Z,100.00
2022-11-10T05:52:37.264Z,100.00
2022-11-10T05:55:25.091Z,100.00
2022-11-10T05:58:11.597Z,100.00
2022-11-10T06:00:59.078Z,100.00
2022-11-10T06:03:45.167Z,100.00
2022-11-10T06:06:31.567Z,100.00
2022-11-10T06:09:17.587Z,100.00
2022-11-10T06:12:04.990Z,100.00
2022-11-10T06:14:51.603Z,100.00
2022-11-10T06:17:39.563Z,100.00
2022-11-10T06:20:26.565Z,100.00
2022-11-10T06:23:14.002Z,100.00
2022-11-10T06:26:00.403Z,100.00
2022-11-10T06:28:48.157Z,100.00
2022-11-10T06:31:34.248Z,100.00
2022-11-10T06:34:21.663Z,100.00
2022-11-10T06:37:08.068Z,100.00
2022-11-10T06:39:54.025Z,100.00
2022-11-10T06:42:40.107Z,100.00
2022-11-10T06:45:28.195Z,100.00
2022-11-10T06:48:14.825Z,100.00
2022-11-10T06:51:02.803Z,100.00
2022-11-10T06:53:49.150Z,100.00
2022-11-10T06:56:35.748Z,100.00
2022-11-10T06:59:21.894Z,100.00
2022-11-10T07:02:14.019Z,100.00
2022-11-10T07:05:00.057Z,100.00
2022-11-10T07:07:47.434Z,100.00
2022-11-10T07:10:34.849Z,100.00
2022-11-10T07:13:22.009Z,100.00
2022-11-10T07:16:09.771Z,100.00
2022-11-10T07:18:55.756Z,100.00
2022-11-10T07:21:42.495Z,100.00
2022-11-10T07:24:30.422Z,100.00
2022-11-10T07:27:16.820Z,100.00
2022-11-10T07:30:03.327Z,100.00
2022-11-10T07:32:58.966Z,100.00
2022-11-10T07:35:51.393Z,100.00
2022-11-10T07:38:37.612Z,100.00
2022-11-10T07:41:24.831Z,100.00
2022-11-10T07:44:11.198Z,100.00
2022-11-10T07:46:57.432Z,100.00
2022-11-10T07:49:43.707Z,100.00
2022-11-10T07:52:29.708Z,100.00
2022-11-10T07:55:16.019Z,100.00
2022-11-10T07:58:06.003Z,100.00
2022-11-10T08:00:52.441Z,100.00
2022-11-10T08:03:38.447Z,100.00
2022-11-10T08:06:24.523Z,100.00
2022-11-10T08:09:10.630Z,100.00
2022-11-10T08:11:56.964Z,100.00
2022-11-10T08:14:44.506Z,100.00
2022-11-10T08:17:30.799Z,100.00
2022-11-10T08:20:17.402Z,100.00
2022-11-10T08:23:05.347Z,100.00
2022-11-10T08:25:53.191Z,100.00
2022-11-10T08:28:39.188Z,100.00
2022-11-10T08:31:26.758Z,100.00
2022-11-10T08:34:12.908Z,100.00
2022-11-10T08:36:59.152Z,100.00
2022-11-10T08:39:45.301Z,99.40
2022-11-10T08:42:31.427Z,99.37
2022-11-10T08:45:17.723Z,99.68
2022-11-10T08:48:08.640Z,96.50
2022-11-10T08:50:55.055Z,96.69
2022-11-10T08:53:41.228Z,96.50
2022-11-10T08:56:27.438Z,96.94
2022-11-10T08:59:13.394Z,95.57
2022-11-10T09:01:59.759Z,95.31
2022-11-10T09:04:48.038Z,95.11
2022-11-10T09:07:43.138Z,94.46
2022-11-10T09:10:29.418Z,92.28
2022-11-10T09:13:17.120Z,92.23
2022-11-10T09:16:04.100Z,93.32
2022-11-10T09:18:50.412Z,92.89
2022-11-10T09:21:37.903Z,92.64
2022-11-10T09:24:28.473Z,93.65
2022-11-10T09:27:17.233Z,92.67
2022-11-10T09:30:03.618Z,89.17
2022-11-10T09:32:54.703Z,86.49
2022-11-10T09:35:41.308Z,83.54
2022-11-10T09:38:28.750Z,84.59
2022-11-10T09:41:16.445Z,85.80
2022-11-10T09:48:18.163Z,82.93
2022-11-10T09:51:08.993Z,83.10
2022-11-10T09:53:59.332Z,79.87
2022-11-10T09:56:45.616Z,78.02
2022-11-10T09:59:34.036Z,77.47
2022-11-10T10:02:30.549Z,79.67
2022-11-10T10:05:37.562Z,74.46
2022-11-10T10:08:33.591Z,73.23
2022-11-10T10:11:36.118Z,73.66
2022-11-10T10:14:43.625Z,76.93
2022-11-10T10:17:41.348Z,76.42
2022-11-10T10:20:36.176Z,71.60
2022-11-10T10:23:54.009Z,75.17
2022-11-10T10:26:41.064Z,70.61
2022-11-10T10:29:37.072Z,69.12
2022-11-10T10:32:23.604Z,68.71
2022-11-10T10:35:13.970Z,71.13
2022-11-10T10:38:01.231Z,70.14
2022-11-10T10:40:51.111Z,70.39
2022-11-10T10:43:38.435Z,70.78
2022-11-10T10:46:28.348Z,71.90
2022-11-10T10:49:30.147Z,67.13
2022-11-10T10:52:24.530Z,66.22
2022-11-10T10:55:13.886Z,63.77
2022-11-10T10:58:01.972Z,64.26
2022-11-10T11:00:52.661Z,64.55
2022-11-10T11:03:42.310Z,64.73
2022-11-10T11:06:30.532Z,61.80
2022-11-10T11:09:20.403Z,61.21
2022-11-10T11:12:09.568Z,60.02
2022-11-10T11:15:13.864Z,57.92
2022-11-10T11:18:03.597Z,59.35
2022-11-10T11:20:58.648Z,57.72
2022-11-10T11:23:59.690Z,57.27
2022-11-10T11:26:54.959Z,59.06
2022-11-10T11:29:58.829Z,60.92
2022-11-10T11:33:20.546Z,60.60
2022-11-10T11:36:18.879Z,59.38
2022-11-10T11:39:15.807Z,61.55
2022-11-10T11:42:16.272Z,61.73
2022-11-10T11:45:16.690Z,60.96
2022-11-10T11:48:24.168Z,60.04
2022-11-10T11:51:17.802Z,57.55
2022-11-10T11:54:20.976Z,55.63
2022-11-10T11:57:21.369Z,56.43
2022-11-10T12:00:11.460Z,56.05
2022-11-10T12:03:19.998Z,55.77
2022-11-10T12:06:26.450Z,55.24
2022-11-10T12:09:22.835Z,54.18
2022-11-10T12:12:22.424Z,52.44
2022-11-10T12:15:24.859Z,51.95
2022-11-10T12:18:19.308Z,52.49
2022-11-10T12:21:18.944Z,52.41
2022-11-10T12:24:18.950Z,52.80
2022-11-10T12:27:12.599Z,51.41
2022-11-10T12:30:03.098Z,50.65
2022-11-10T12:32:54.853Z,50.55
2022-11-10T12:35:45.132Z,49.88
2022-11-10T12:38:43.767Z,50.82
2022-11-10T12:41:37.872Z,49.17
2022-11-10T12:44:27.909Z,51.42
2022-11-10T12:47:21.180Z,49.76
2022-11-10T12:50:23.238Z,49.39
2022-11-10T12:53:19.921Z,50.82
2022-11-10T12:56:14.643Z,48.15
2022-11-10T12:59:32.895Z,48.40
2022-11-10T13:02:27.739Z,47.65
2022-11-10T13:05:37.362Z,47.78
2022-11-10T13:08:36.977Z,46.79
2022-11-10T13:11:31.728Z,46.10
2022-11-10T13:14:24.418Z,44.93
2022-11-10T13:17:12.427Z,46.24
2022-11-10T13:20:20.472Z,45.47
2022-11-10T13:23:22.569Z,47.63
2022-11-10T13:26:11.990Z,46.89
2022-11-10T13:29:04.585Z,46.40
2022-11-10T13:31:55.894Z,45.84
2022-11-10T13:34:42.987Z,44.50
2022-11-10T13:37:50.347Z,46.30
2022-11-10T13:40:39.305Z,46.01
2022-11-10T13:43:27.969Z,47.51
2022-11-10T13:46:15.753Z,47.29
2022-11-10T13:49:25.743Z,47.11
2022-11-10T13:52:16.844Z,46.92
2022-11-10T13:55:16.137Z,46.67
2022-11-10T13:58:05.042Z,46.03
2022-11-10T14:01:12.100Z,45.98
2022-11-10T14:04:02.026Z,47.01
2022-11-10T14:06:51.197Z,46.94
2022-11-10T14:09:40.485Z,47.10
2022-11-10T14:12:31.592Z,45.85
2022-11-10T14:15:20.907Z,44.06
2022-11-10T14:18:18.183Z,44.14
2022-11-10T14:21:07.543Z,45.06
2022-11-10T14:23:59.531Z,46.07
2022-11-10T14:26:50.460Z,45.95
2022-11-10T14:29:39.847Z,46.07
2022-11-10T14:32:26.935Z,46.72
2022-11-10T14:35:22.556Z,47.55
2022-11-10T14:38:21.248Z,48.36
2022-11-10T14:41:17.529Z,50.65
2022-11-10T14:44:05.399Z,50.19
2022-11-10T14:46:52.448Z,51.99
2022-11-10T14:49:38.736Z,53.67
2022-11-10T14:52:25.053Z,53.87
2022-11-10T14:55:17.353Z,54.22
2022-11-10T14:58:06.446Z,54.74
2022-11-10T15:00:53.158Z,56.56
2022-11-10T15:03:42.279Z,57.10
2022-11-10T15:06:29.316Z,57.06
2022-11-10T15:09:18.068Z,58.07
2022-11-10T15:12:21.041Z,59.59
2022-11-10T15:15:20.022Z,61.39
2022-11-10T15:18:06.568Z,60.96
2022-11-10T15:21:01.868Z,63.50
2022-11-10T15:23:53.408Z,64.86
2022-11-10T15:26:41.581Z,65.78
2022-11-10T15:29:30.365Z,66.59
2022-11-10T15:32:19.809Z,66.49
2022-11-10T15:35:11.329Z,67.46
2022-11-10T15:38:02.593Z,68.26
2022-11-10T15:40:50.611Z,73.00
2022-11-10T15:43:37.057Z,72.02
2022-11-10T15:46:27.368Z,71.64
2022-11-10T15:49:20.193Z,73.14
2022-11-10T15:52:13.109Z,74.62
2022-11-10T15:54:59.539Z,74.86
2022-11-10T15:57:45.756Z,75.62
2022-11-10T16:00:31.984Z,76.11
2022-11-10T16:03:22.339Z,77.37
2022-11-10T16:06:12.598Z,78.01
2022-11-10T16:08:59.173Z,79.58
2022-11-10T16:11:46.652Z,81.42
2022-11-10T16:14:33.018Z,82.71
2022-11-10T16:17:20.087Z,83.25
2022-11-10T16:20:14.224Z,83.62
2022-11-10T16:23:00.522Z,84.46
2022-11-10T16:25:48.046Z,85.06
2022-11-10T16:28:34.838Z,86.05
2022-11-10T16:31:22.808Z,85.68
2022-11-10T16:34:13.641Z,85.95
2022-11-10T16:37:01.740Z,86.95
2022-11-10T16:39:48.032Z,87.62
2022-11-10T16:42:34.216Z,87.86
2022-11-10T16:45:23.236Z,88.79
2022-11-10T16:48:09.786Z,89.26
2022-11-10T16:50:58.734Z,89.61
2022-11-10T16:53:46.827Z,90.00
2022-11-10T16:56:32.942Z,90.28
2022-11-10T16:59:19.133Z,90.78
2022-11-10T17:02:05.872Z,91.97
2022-11-10T17:04:52.574Z,92.66
2022-11-10T17:07:39.440Z,92.84
2022-11-10T17:10:27.098Z,94.02
2022-11-10T17:13:13.173Z,93.66
2022-11-10T17:16:08.479Z,94.89
2022-11-10T17:18:56.472Z,94.50
2022-11-10T17:21:43.193Z,94.31
2022-11-10T17:24:29.817Z,94.91
2022-11-10T17:27:19.965Z,93.84
2022-11-10T17:30:07.304Z,94.65
2022-11-10T17:33:09.539Z,94.58
2022-11-10T17:35:57.499Z,94.38
2022-11-10T17:38:44.477Z,94.71
2022-11-10T17:41:30.727Z,95.14
2022-11-10T17:44:19.697Z,95.86
2022-11-10T17:47:05.897Z,95.86
2022-11-10T17:49:51.955Z,96.51
2022-11-10T17:52:38.114Z,95.83
2022-11-10T17:55:29.785Z,95.73
2022-11-10T17:58:19.458Z,94.97
2022-11-10T18:01:17.443Z,95.86
2022-11-10T18:04:04.340Z,95.74
2022-11-10T18:06:50.459Z,96.32
2022-11-10T18:09:36.702Z,96.04
2022-11-10T18:12:26.871Z,96.34
2022-11-10T18:15:16.136Z,96.81
2022-11-10T18:18:03.958Z,96.77
2022-11-10T18:20:49.995Z,97.18
2022-11-10T18:23:36.169Z,97.48
2022-11-10T18:26:22.296Z,97.47
2022-11-10T18:29:08.416Z,97.50
2022-11-10T18:31:54.631Z,97.70
2022-11-10T18:34:42.127Z,96.75
2022-11-10T18:37:28.403Z,98.04
2022-11-10T18:40:15.037Z,98.42
2022-11-10T18:43:06.145Z,99.01
2022-11-10T18:45:54.539Z,99.02
2022-11-10T18:48:41.159Z,98.51
2022-11-10T18:51:28.896Z,98.85
2022-11-10T18:54:15.068Z,98.08
2022-11-10T18:57:01.277Z,98.26
2022-11-10T18:59:47.549Z,98.85
2022-11-10T19:02:34.164Z,98.95
2022-11-10T19:05:20.318Z,99.05
2022-11-10T19:08:08.095Z,98.90
2022-11-10T19:10:54.813Z,99.81
2022-11-10T19:13:41.708Z,99.99
2022-11-10T19:16:30.005Z,100.00
2022-11-10T19:19:16.354Z,100.00
2022-11-10T19:22:02.642Z,100.00
2022-11-10T19:25:10.358Z,100.00
2022-11-10T19:27:56.917Z,100.00
2022-11-10T19:30:43.136Z,100.00
2022-11-10T19:33:30.846Z,100.00
2022-11-10T19:36:19.136Z,100.00
2022-11-10T19:39:05.483Z,100.00
2022-11-10T19:41:53.889Z,100.00
2022-11-10T19:44:40.268Z,100.00
2022-11-10T19:47:26.540Z,99.96
2022-11-10T19:50:12.867Z,100.00
2022-11-10T19:52:58.877Z,100.00
2022-11-10T19:55:45.233Z,100.00
2022-11-10T19:58:33.043Z,100.00
2022-11-10T20:01:20.923Z,100.00
2022-11-10T20:04:08.531Z,100.00
2022-11-10T20:07:09.349Z,100.00
2022-11-10T20:09:55.673Z,100.00
2022-11-10T20:12:41.977Z,100.00
2022-11-10T20:15:29.519Z,100.00
2022-11-10T20:18:15.910Z,100.00
2022-11-10T20:21:05.798Z,100.00
2022-11-10T20:23:55.887Z,99.55
2022-11-10T20:26:42.233Z,99.78
2022-11-10T20:29:28.254Z,99.61
2022-11-10T20:32:15.908Z,99.45
2022-11-10T20:35:01.966Z,99.54
2022-11-10T20:37:48.461Z,99.42
2022-11-10T20:40:49.656Z,99.63
2022-11-10T20:43:37.538Z,99.29
2022-11-10T20:49:32.030Z,99.04
2022-11-10T20:52:18.439Z,99.31
2022-11-10T20:55:05.381Z,99.44
2022-11-10T20:57:52.040Z,99.45
2022-11-10T21:00:38.168Z,99.90
2022-11-10T21:03:24.585Z,99.75
2022-11-10T21:06:12.780Z,99.54
2022-11-10T21:08:59.188Z,99.58
2022-11-10T21:12:02.743Z,100.00
2022-11-10T21:14:49.099Z,100.00
2022-11-10T21:17:37.275Z,100.00
2022-11-10T21:20:26.533Z,100.00
2022-11-10T21:23:14.059Z,100.00
2022-11-10T21:26:01.628Z,100.00
2022-11-10T21:28:47.981Z,100.00
2022-11-10T21:31:34.613Z,100.00
2022-11-10T21:34:20.888Z,100.00
2022-11-10T21:37:07.654Z,100.00
2022-11-10T21:39:55.000Z,100.00
2022-11-10T21:42:41.216Z,100.00
2022-11-10T21:45:27.434Z,100.00
2022-11-10T21:48:13.554Z,100.00
2022-11-10T21:51:00.879Z,100.00
2022-11-10T21:53:47.138Z,100.00
2022-11-10T21:56:39.495Z,100.00
2022-11-10T21:59:27.113Z,100.00
2022-11-10T22:02:14.644Z,100.00
2022-11-10T22:05:00.899Z,100.00
2022-11-10T22:07:46.949Z,100.00
2022-11-10T22:10:50.500Z,100.00
2022-11-10T22:13:54.336Z,100.00
2022-11-10T22:17:03.996Z,100.00
2022-11-10T22:19:50.604Z,100.00
2022-11-10T22:22:36.839Z,100.00
2022-11-10T22:25:22.997Z,100.00
2022-11-10T22:28:09.236Z,100.00
2022-11-10T22:30:55.220Z,100.00
2022-11-10T22:33:43.790Z,100.00
2022-11-10T22:36:30.659Z,100.00
2022-11-10T22:39:17.713Z,100.00
2022-11-10T22:42:21.340Z,100.00
2022-11-10T22:45:08.710Z,100.00
2022-11-10T22:48:12.191Z,100.00
2022-11-10T22:51:01.023Z,100.00
2022-11-10T22:53:47.136Z,100.00
2022-11-10T22:56:34.308Z,100.00
2022-11-10T22:59:20.912Z,100.00
2022-11-10T23:02:07.111Z,100.00
2022-11-10T23:04:53.192Z,100.00
2022-11-10T23:07:41.067Z,100.00
2022-11-10T23:10:27.717Z,100.00
2022-11-10T23:13:14.579Z,100.00
2022-11-10T23:16:05.669Z,100.00
2022-11-10T23:18:53.546Z,100.00
2022-11-10T23:21:39.929Z,100.00
2022-11-10T23:24:27.700Z,100.00
2022-11-10T23:27:14.230Z,100.00
2022-11-10T23:30:00.298Z,100.00
2022-11-10T23:32:46.554Z,100.00
2022-11-10T23:35:33.212Z,100.00
2022-11-10T23:38:26.801Z,100.00
2022-11-10T23:41:17.115Z,99.72
2022-11-10T23:44:03.483Z,99.79
2022-11-10T23:46:49.895Z,98.65
2022-11-10T23:49:36.409Z,99.31
2022-11-10T23:52:22.782Z,99.82
2022-11-10T23:55:10.024Z,99.92
2022-11-10T23:58:00.034Z,99.91
